sensor_id;sensor_type;location;lat;lon;timestamp;pressure;altitude;pressure_sealevel;temperature;humidity
29461;BME280;16428;47.836;35.106;2023-04-02T00:09:14;100605.00;;;8.91;100.00
29461;BME280;16428;47.836;35.106;2023-04-02T00:11:49;100611.84;;;8.94;100.00
29461;BME280;16428;47.836;35.106;2023-04-02T00:16:55;100610.38;;;8.83;100.00
29461;BME280;16428;47.836;35.106;2023-04-02T00:22:10;100611.22;;;8.84;100.00
29461;BME280;16428;47.836;35.106;2023-04-02T00:24:40;100610.34;;;8.91;100.00
29461;BME280;16428;47.836;35.106;2023-04-02T00:27:12;100613.19;;;8.98;100.00
29461;BME280;16428;47.836;35.106;2023-04-02T00:29:48;100614.03;;;8.98;100.00
29461;BME280;16428;47.836;35.106;2023-04-02T00:32:26;100619.91;;;8.86;100.00
29461;BME280;16428;47.836;35.106;2023-04-02T00:34:54;100621.06;;;8.99;100.00
29461;BME280;16428;47.836;35.106;2023-04-02T00:37:27;100615.03;;;8.89;100.00
29461;BME280;16428;47.836;35.106;2023-04-02T00:40:08;100624.75;;;8.98;100.00
29461;BME280;16428;47.836;35.106;2023-04-02T00:42:37;100614.88;;;8.91;100.00
29461;BME280;16428;47.836;35.106;2023-04-02T00:45:21;100620.25;;;8.99;100.00
29461;BME280;16428;47.836;35.106;2023-04-02T00:47:50;100617.72;;;8.89;100.00
29461;BME280;16428;47.836;35.106;2023-04-02T00:50:33;100616.72;;;8.82;100.00
29461;BME280;16428;47.836;35.106;2023-04-02T00:53:09;100615.53;;;8.93;100.00
29461;BME280;16428;47.836;35.106;2023-04-02T00:55:40;100617.41;;;9.00;100.00
29461;BME280;16428;47.836;35.106;2023-04-02T00:58:18;100613.34;;;8.56;100.00
29461;BME280;16428;47.836;35.106;2023-04-02T01:00:51;100608.50;;;8.75;100.00
29461;BME280;16428;47.836;35.106;2023-04-02T01:06:09;100613.03;;;8.75;100.00
29461;BME280;16428;47.836;35.106;2023-04-02T01:30:54;100611.38;;;8.98;100.00
29461;BME280;16428;47.836;35.106;2023-04-02T01:33:29;100602.63;;;9.04;100.00
29461;BME280;16428;47.836;35.106;2023-04-02T01:42:20;100606.47;;;9.10;100.00
29461;BME280;16428;47.836;35.106;2023-04-02T01:44:53;100607.16;;;9.04;100.00
29461;BME280;16428;47.836;35.106;2023-04-02T01:47:27;100607.63;;;9.24;100.00
29461;BME280;16428;47.836;35.106;2023-04-02T01:50:04;100608.66;;;9.14;100.00
29461;BME280;16428;47.836;35.106;2023-04-02T01:52:43;100603.59;;;9.28;100.00
29461;BME280;16428;47.836;35.106;2023-04-02T01:55:19;100607.63;;;9.32;100.00
29461;BME280;16428;47.836;35.106;2023-04-02T01:57:53;100606.25;;;9.36;100.00
29461;BME280;16428;47.836;35.106;2023-04-02T02:00:21;100602.75;;;9.27;100.00
29461;BME280;16428;47.836;35.106;2023-04-02T02:02:50;100595.91;;;9.25;100.00
29461;BME280;16428;47.836;35.106;2023-04-02T02:05:20;100602.06;;;9.33;100.00
29461;BME280;16428;47.836;35.106;2023-04-02T02:07:54;100606.84;;;8.91;100.00
29461;BME280;16428;47.836;35.106;2023-04-02T02:10:26;100608.50;;;9.08;100.00
29461;BME280;16428;47.836;35.106;2023-04-02T02:12:57;100605.28;;;9.29;100.00
29461;BME280;16428;47.836;35.106;2023-04-02T02:15:27;100597.78;;;9.08;100.00
29461;BME280;16428;47.836;35.106;2023-04-02T02:18:03;100603.63;;;9.11;100.00
29461;BME280;16428;47.836;35.106;2023-04-02T02:20:33;100605.66;;;9.09;100.00
29461;BME280;16428;47.836;35.106;2023-04-02T02:23:03;100602.81;;;9.11;100.00
29461;BME280;16428;47.836;35.106;2023-04-02T02:25:33;100620.56;;;9.12;100.00
29461;BME280;16428;47.836;35.106;2023-04-02T02:28:26;100614.31;;;9.28;100.00
29461;BME280;16428;47.836;35.106;2023-04-02T02:31:13;100608.13;;;9.27;100.00
29461;BME280;16428;47.836;35.106;2023-04-02T02:33:52;100606.59;;;9.33;100.00
29461;BME280;16428;47.836;35.106;2023-04-02T02:39:03;100611.63;;;9.36;99.14
29461;BME280;16428;47.836;35.106;2023-04-02T02:46:46;100616.63;;;9.39;97.58
29461;BME280;16428;47.836;35.106;2023-04-02T02:49:30;100615.66;;;9.24;98.32
29461;BME280;16428;47.836;35.106;2023-04-02T02:52:11;100614.63;;;9.41;97.41
29461;BME280;16428;47.836;35.106;2023-04-02T02:54:46;100615.66;;;9.32;97.71
29461;BME280;16428;47.836;35.106;2023-04-02T02:57:25;100617.28;;;9.49;96.46
29461;BME280;16428;47.836;35.106;2023-04-02T02:59:57;100626.00;;;9.43;96.65
29461;BME280;16428;47.836;35.106;2023-04-02T03:02:27;100620.34;;;9.30;97.24
29461;BME280;16428;47.836;35.106;2023-04-02T03:04:56;100623.88;;;9.30;96.34
29461;BME280;16428;47.836;35.106;2023-04-02T03:07:26;100616.47;;;9.32;96.42
29461;BME280;16428;47.836;35.106;2023-04-02T03:12:44;100622.53;;;9.18;94.44
29461;BME280;16428;47.836;35.106;2023-04-02T03:15:34;100619.22;;;9.08;95.35
29461;BME280;16428;47.836;35.106;2023-04-02T03:20:48;100624.69;;;9.39;91.15
29461;BME280;16428;47.836;35.106;2023-04-02T03:23:27;100621.66;;;9.42;90.21
29461;BME280;16428;47.836;35.106;2023-04-02T03:28:44;100635.47;;;9.14;87.90
29461;BME280;16428;47.836;35.106;2023-04-02T03:31:21;100620.03;;;9.25;88.13
29461;BME280;16428;47.836;35.106;2023-04-02T03:33:55;100627.69;;;9.36;86.13
29461;BME280;16428;47.836;35.106;2023-04-02T03:36:34;100623.53;;;9.25;83.69
29461;BME280;16428;47.836;35.106;2023-04-02T03:44:42;100626.03;;;9.35;83.32
29461;BME280;16428;47.836;35.106;2023-04-02T03:47:19;100629.25;;;9.30;81.40
29461;BME280;16428;47.836;35.106;2023-04-02T03:50:10;100639.72;;;9.56;79.69
29461;BME280;16428;47.836;35.106;2023-04-02T03:52:42;100633.34;;;9.49;80.56
29461;BME280;16428;47.836;35.106;2023-04-02T03:55:20;100634.34;;;9.56;80.17
29461;BME280;16428;47.836;35.106;2023-04-02T04:00:45;100634.72;;;9.45;81.80
29461;BME280;16428;47.836;35.106;2023-04-02T04:03:41;100635.53;;;9.53;81.45
29461;BME280;16428;47.836;35.106;2023-04-02T04:06:24;100655.34;;;9.36;81.96
29461;BME280;16428;47.836;35.106;2023-04-02T04:09:10;100639.09;;;9.46;81.11
29461;BME280;16428;47.836;35.106;2023-04-02T04:11:48;100654.50;;;9.36;80.24
29461;BME280;16428;47.836;35.106;2023-04-02T04:14:26;100646.78;;;9.33;80.70
29461;BME280;16428;47.836;35.106;2023-04-02T04:17:15;100656.19;;;9.37;79.66
29461;BME280;16428;47.836;35.106;2023-04-02T04:19:48;100654.88;;;9.16;80.40
29461;BME280;16428;47.836;35.106;2023-04-02T04:22:28;100657.84;;;9.38;79.15
29461;BME280;16428;47.836;35.106;2023-04-02T04:25:04;100647.47;;;9.43;78.62
29461;BME280;16428;47.836;35.106;2023-04-02T04:27:39;100653.00;;;9.41;77.49
29461;BME280;16428;47.836;35.106;2023-04-02T04:30:29;100645.63;;;9.43;77.40
29461;BME280;16428;47.836;35.106;2023-04-02T04:33:24;100650.66;;;9.46;77.03
29461;BME280;16428;47.836;35.106;2023-04-02T04:35:57;100647.94;;;9.55;77.12
29461;BME280;16428;47.836;35.106;2023-04-02T04:38:31;100656.34;;;9.35;75.83
29461;BME280;16428;47.836;35.106;2023-04-02T04:41:15;100657.63;;;9.64;75.50
29461;BME280;16428;47.836;35.106;2023-04-02T04:43:47;100647.75;;;9.48;75.88
29461;BME280;16428;47.836;35.106;2023-04-02T04:46:41;100651.41;;;9.71;74.40
29461;BME280;16428;47.836;35.106;2023-04-02T04:49:31;100649.22;;;9.67;75.71
29461;BME280;16428;47.836;35.106;2023-04-02T04:52:34;100647.72;;;9.64;75.27
29461;BME280;16428;47.836;35.106;2023-04-02T04:55:27;100652.03;;;9.81;74.13
29461;BME280;16428;47.836;35.106;2023-04-02T04:58:02;100644.16;;;9.80;74.53
29461;BME280;16428;47.836;35.106;2023-04-02T05:03:37;100653.84;;;9.89;73.60
29461;BME280;16428;47.836;35.106;2023-04-02T05:06:11;100652.91;;;9.74;73.86
29461;BME280;16428;47.836;35.106;2023-04-02T05:08:46;100651.03;;;9.82;74.19
29461;BME280;16428;47.836;35.106;2023-04-02T05:11:43;100657.94;;;9.77;74.87
29461;BME280;16428;47.836;35.106;2023-04-02T05:14:21;100648.84;;;9.78;73.44
29461;BME280;16428;47.836;35.106;2023-04-02T05:17:06;100654.97;;;9.95;71.61
29461;BME280;16428;47.836;35.106;2023-04-02T05:19:59;100656.66;;;9.96;73.34
29461;BME280;16428;47.836;35.106;2023-04-02T05:22:43;100650.63;;;9.94;73.52
29461;BME280;16428;47.836;35.106;2023-04-02T05:25:21;100643.56;;;10.01;72.34
29461;BME280;16428;47.836;35.106;2023-04-02T05:27:59;100649.00;;;9.84;72.98
29461;BME280;16428;47.836;35.106;2023-04-02T05:30:59;100652.78;;;10.06;72.76
29461;BME280;16428;47.836;35.106;2023-04-02T05:33:32;100654.88;;;10.27;70.24
29461;BME280;16428;47.836;35.106;2023-04-02T05:36:09;100657.06;;;10.23;69.86
29461;BME280;16428;47.836;35.106;2023-04-02T05:38:43;100652.97;;;10.36;69.27
29461;BME280;16428;47.836;35.106;2023-04-02T05:41:31;100652.63;;;10.62;67.74
29461;BME280;16428;47.836;35.106;2023-04-02T05:44:14;100645.34;;;10.47;68.17
29461;BME280;16428;47.836;35.106;2023-04-02T05:46:58;100645.97;;;10.27;67.79
29461;BME280;16428;47.836;35.106;2023-04-02T05:49:38;100655.84;;;10.34;67.46
29461;BME280;16428;47.836;35.106;2023-04-02T05:52:16;100649.69;;;10.17;69.13
29461;BME280;16428;47.836;35.106;2023-04-02T05:57:36;100644.47;;;10.24;68.76
29461;BME280;16428;47.836;35.106;2023-04-02T06:00:39;100647.59;;;9.97;70.10
29461;BME280;16428;47.836;35.106;2023-04-02T06:05:54;100646.53;;;10.22;69.36
29461;BME280;16428;47.836;35.106;2023-04-02T06:08:35;100638.06;;;10.33;68.35
29461;BME280;16428;47.836;35.106;2023-04-02T06:11:26;100644.59;;;10.39;68.55
29461;BME280;16428;47.836;35.106;2023-04-02T06:13:55;100641.63;;;10.26;70.23
29461;BME280;16428;47.836;35.106;2023-04-02T06:16:26;100642.50;;;10.49;68.00
29461;BME280;16428;47.836;35.106;2023-04-02T06:18:59;100644.75;;;10.60;66.17
29461;BME280;16428;47.836;35.106;2023-04-02T06:21:27;100645.53;;;10.46;67.56
29461;BME280;16428;47.836;35.106;2023-04-02T06:24:01;100640.16;;;10.23;67.25
29461;BME280;16428;47.836;35.106;2023-04-02T06:26:37;100649.78;;;10.63;66.99
29461;BME280;16428;47.836;35.106;2023-04-02T06:31:57;100648.69;;;10.72;66.07
29461;BME280;16428;47.836;35.106;2023-04-02T06:34:28;100647.03;;;10.94;62.66
29461;BME280;16428;47.836;35.106;2023-04-02T06:37:02;100643.00;;;10.90;61.75
29461;BME280;16428;47.836;35.106;2023-04-02T06:39:30;100644.69;;;10.91;59.49
29461;BME280;16428;47.836;35.106;2023-04-02T06:42:17;100648.63;;;11.18;57.35
29461;BME280;16428;47.836;35.106;2023-04-02T06:44:47;100648.97;;;11.38;56.20
29461;BME280;16428;47.836;35.106;2023-04-02T06:47:34;100634.78;;;11.44;52.56
29461;BME280;16428;47.836;35.106;2023-04-02T06:52:53;100636.91;;;11.63;47.90
29461;BME280;16428;47.836;35.106;2023-04-02T06:58:22;100637.00;;;11.55;47.82
29461;BME280;16428;47.836;35.106;2023-04-02T07:00:50;100644.53;;;11.74;49.27
29461;BME280;16428;47.836;35.106;2023-04-02T07:03:31;100643.22;;;11.70;48.70
29461;BME280;16428;47.836;35.106;2023-04-02T07:06:01;100640.91;;;11.96;48.65
29461;BME280;16428;47.836;35.106;2023-04-02T07:08:31;100640.16;;;12.03;46.38
29461;BME280;16428;47.836;35.106;2023-04-02T07:10:58;100636.72;;;12.09;46.94
29461;BME280;16428;47.836;35.106;2023-04-02T07:13:26;100646.09;;;12.13;45.99
29461;BME280;16428;47.836;35.106;2023-04-02T07:15:54;100644.31;;;12.20;46.28
29461;BME280;16428;47.836;35.106;2023-04-02T07:18:29;100632.25;;;12.16;46.24
29461;BME280;16428;47.836;35.106;2023-04-02T07:20:57;100633.94;;;12.02;46.27
29461;BME280;16428;47.836;35.106;2023-04-02T07:23:25;100640.47;;;12.29;46.37
29461;BME280;16428;47.836;35.106;2023-04-02T07:25:54;100635.84;;;12.23;42.98
29461;BME280;16428;47.836;35.106;2023-04-02T07:28:24;100634.38;;;12.20;41.95
29461;BME280;16428;47.836;35.106;2023-04-02T07:30:53;100636.56;;;12.31;42.42
29461;BME280;16428;47.836;35.106;2023-04-02T07:33:24;100627.09;;;12.36;43.17
29461;BME280;16428;47.836;35.106;2023-04-02T07:35:53;100629.09;;;12.48;41.41
29461;BME280;16428;47.836;35.106;2023-04-02T07:38:22;100629.09;;;12.69;41.36
29461;BME280;16428;47.836;35.106;2023-04-02T07:40:50;100626.38;;;12.69;41.28
29461;BME280;16428;47.836;35.106;2023-04-02T07:43:23;100625.81;;;12.74;39.95
29461;BME280;16428;47.836;35.106;2023-04-02T07:45:50;100618.41;;;13.04;38.75
29461;BME280;16428;47.836;35.106;2023-04-02T07:48:19;100618.94;;;12.93;39.46
29461;BME280;16428;47.836;35.106;2023-04-02T07:50:46;100614.69;;;12.84;40.33
29461;BME280;16428;47.836;35.106;2023-04-02T07:53:35;100607.41;;;12.56;39.76
29461;BME280;16428;47.836;35.106;2023-04-02T07:56:07;100614.88;;;13.03;38.82
29461;BME280;16428;47.836;35.106;2023-04-02T07:58:35;100599.47;;;13.19;38.88
29461;BME280;16428;47.836;35.106;2023-04-02T08:01:03;100596.88;;;12.83;39.19
29461;BME280;16428;47.836;35.106;2023-04-02T08:03:36;100595.16;;;13.03;39.88
29461;BME280;16428;47.836;35.106;2023-04-02T08:06:05;100581.94;;;13.36;38.81
29461;BME280;16428;47.836;35.106;2023-04-02T08:08:32;100594.47;;;13.50;38.44
29461;BME280;16428;47.836;35.106;2023-04-02T08:11:00;100594.22;;;13.80;38.82
29461;BME280;16428;47.836;35.106;2023-04-02T08:13:28;100586.94;;;13.39;39.07
29461;BME280;16428;47.836;35.106;2023-04-02T08:15:58;100586.13;;;13.45;39.49
29461;BME280;16428;47.836;35.106;2023-04-02T08:18:27;100582.97;;;13.76;39.66
29461;BME280;16428;47.836;35.106;2023-04-02T08:20:56;100578.69;;;13.88;40.25
29461;BME280;16428;47.836;35.106;2023-04-02T08:23:25;100581.06;;;14.24;40.87
29461;BME280;16428;47.836;35.106;2023-04-02T08:25:53;100579.94;;;13.92;42.93
29461;BME280;16428;47.836;35.106;2023-04-02T08:28:22;100585.09;;;13.81;43.48
29461;BME280;16428;47.836;35.106;2023-04-02T08:30:53;100580.97;;;13.91;43.66
29461;BME280;16428;47.836;35.106;2023-04-02T08:33:22;100582.06;;;14.03;44.06
29461;BME280;16428;47.836;35.106;2023-04-02T08:35:49;100575.44;;;13.65;45.73
29461;BME280;16428;47.836;35.106;2023-04-02T08:38:19;100576.44;;;13.98;45.15
29461;BME280;16428;47.836;35.106;2023-04-02T08:40:53;100579.28;;;13.90;46.48
29461;BME280;16428;47.836;35.106;2023-04-02T08:43:49;100577.63;;;13.83;47.53
29461;BME280;16428;47.836;35.106;2023-04-02T08:46:32;100568.03;;;13.80;47.88
29461;BME280;16428;47.836;35.106;2023-04-02T08:49:15;100569.69;;;13.75;49.08
29461;BME280;16428;47.836;35.106;2023-04-02T08:51:45;100576.78;;;13.82;48.76
29461;BME280;16428;47.836;35.106;2023-04-02T08:54:20;100585.06;;;13.74;50.50
29461;BME280;16428;47.836;35.106;2023-04-02T08:57:20;100594.34;;;14.13;48.84
29461;BME280;16428;47.836;35.106;2023-04-02T09:00:04;100595.50;;;13.90;50.35
29461;BME280;16428;47.836;35.106;2023-04-02T09:02:48;100604.97;;;14.27;48.29
29461;BME280;16428;47.836;35.106;2023-04-02T09:05:30;100609.31;;;14.15;48.44
29461;BME280;16428;47.836;35.106;2023-04-02T09:08:02;100600.63;;;14.26;49.49
29461;BME280;16428;47.836;35.106;2023-04-02T09:10:48;100607.28;;;14.37;49.66
29461;BME280;16428;47.836;35.106;2023-04-02T09:13:23;100608.25;;;14.09;48.12
29461;BME280;16428;47.836;35.106;2023-04-02T09:16:05;100613.25;;;14.13;48.28
29461;BME280;16428;47.836;35.106;2023-04-02T09:18:35;100615.16;;;14.19;47.69
29461;BME280;16428;47.836;35.106;2023-04-02T09:23:48;100622.78;;;14.08;49.55
29461;BME280;16428;47.836;35.106;2023-04-02T09:26:21;100619.00;;;13.96;51.31
29461;BME280;16428;47.836;35.106;2023-04-02T09:31:44;100624.66;;;14.08;51.79
29461;BME280;16428;47.836;35.106;2023-04-02T09:34:32;100613.25;;;14.13;53.11
29461;BME280;16428;47.836;35.106;2023-04-02T09:37:15;100620.53;;;14.12;53.68
29461;BME280;16428;47.836;35.106;2023-04-02T09:39:43;100621.78;;;14.23;55.45
29461;BME280;16428;47.836;35.106;2023-04-02T09:42:33;100618.03;;;14.11;55.41
29461;BME280;16428;47.836;35.106;2023-04-02T09:45:22;100615.56;;;14.22;53.60
29461;BME280;16428;47.836;35.106;2023-04-02T09:47:51;100614.34;;;14.31;53.94
29461;BME280;16428;47.836;35.106;2023-04-02T09:52:49;100608.47;;;14.15;53.82
29461;BME280;16428;47.836;35.106;2023-04-02T09:55:26;100614.00;;;13.87;55.54
29461;BME280;16428;47.836;35.106;2023-04-02T09:58:15;100602.13;;;13.81;55.20
29461;BME280;16428;47.836;35.106;2023-04-02T10:00:50;100605.44;;;13.83;56.07
29461;BME280;16428;47.836;35.106;2023-04-02T10:03:26;100597.94;;;13.79;55.71
29461;BME280;16428;47.836;35.106;2023-04-02T10:06:07;100595.63;;;13.69;54.62
29461;BME280;16428;47.836;35.106;2023-04-02T10:08:39;100588.81;;;13.80;54.50
29461;BME280;16428;47.836;35.106;2023-04-02T10:11:13;100584.34;;;14.06;54.86
29461;BME280;16428;47.836;35.106;2023-04-02T10:13:56;100575.91;;;13.75;53.76
29461;BME280;16428;47.836;35.106;2023-04-02T10:16:32;100582.06;;;14.10;54.27
29461;BME280;16428;47.836;35.106;2023-04-02T10:21:44;100571.69;;;14.14;51.48
29461;BME280;16428;47.836;35.106;2023-04-02T10:24:16;100588.94;;;14.13;49.95
29461;BME280;16428;47.836;35.106;2023-04-02T10:29:53;100583.56;;;14.19;47.89
29461;BME280;16428;47.836;35.106;2023-04-02T10:32:41;100584.28;;;13.87;49.31
29461;BME280;16428;47.836;35.106;2023-04-02T10:35:27;100587.22;;;13.98;48.94
29461;BME280;16428;47.836;35.106;2023-04-02T10:40:47;100581.53;;;13.80;50.18
29461;BME280;16428;47.836;35.106;2023-04-02T10:43:48;100574.28;;;13.81;50.61
29461;BME280;16428;47.836;35.106;2023-04-02T10:46:27;100580.59;;;14.07;50.22
29461;BME280;16428;47.836;35.106;2023-04-02T10:54:44;100564.97;;;14.64;43.41
29461;BME280;16428;47.836;35.106;2023-04-02T10:57:39;100577.63;;;14.57;43.67
29461;BME280;16428;47.836;35.106;2023-04-02T11:02:45;100566.59;;;14.52;44.40
29461;BME280;16428;47.836;35.106;2023-04-02T11:05:25;100579.06;;;14.53;43.80
29461;BME280;16428;47.836;35.106;2023-04-02T11:08:00;100564.13;;;14.50;44.77
29461;BME280;16428;47.836;35.106;2023-04-02T11:10:45;100569.53;;;14.57;45.79
29461;BME280;16428;47.836;35.106;2023-04-02T11:13:36;100556.13;;;14.16;46.99
29461;BME280;16428;47.836;35.106;2023-04-02T11:16:05;100564.06;;;14.30;46.71
29461;BME280;16428;47.836;35.106;2023-04-02T11:18:34;100557.69;;;14.58;44.72
29461;BME280;16428;47.836;35.106;2023-04-02T11:21:07;100550.81;;;14.55;44.19
29461;BME280;16428;47.836;35.106;2023-04-02T11:24:01;100561.84;;;14.73;43.82
29461;BME280;16428;47.836;35.106;2023-04-02T11:29:24;100569.53;;;14.50;44.43
29461;BME280;16428;47.836;35.106;2023-04-02T11:37:39;100561.22;;;14.58;43.40
29461;BME280;16428;47.836;35.106;2023-04-02T11:42:47;100549.09;;;14.28;40.98
29461;BME280;16428;47.836;35.106;2023-04-02T11:53:29;100544.81;;;13.92;42.51
29461;BME280;16428;47.836;35.106;2023-04-02T11:56:06;100539.84;;;13.89;41.87
29461;BME280;16428;47.836;35.106;2023-04-02T11:59:00;100549.81;;;13.95;42.64
29461;BME280;16428;47.836;35.106;2023-04-02T12:04:36;100554.75;;;13.79;42.67
29461;BME280;16428;47.836;35.106;2023-04-02T12:10:20;100563.25;;;13.34;45.53
29461;BME280;16428;47.836;35.106;2023-04-02T12:12:56;100557.72;;;13.15;47.02
29461;BME280;16428;47.836;35.106;2023-04-02T12:18:17;100547.44;;;12.97;50.01
29461;BME280;16428;47.836;35.106;2023-04-02T12:20:54;100547.47;;;13.03;51.88
29461;BME280;16428;47.836;35.106;2023-04-02T12:23:30;100549.38;;;13.10;51.67
29461;BME280;16428;47.836;35.106;2023-04-02T12:26:02;100552.44;;;13.28;51.27
29461;BME280;16428;47.836;35.106;2023-04-02T12:28:30;100548.34;;;13.45;50.57
29461;BME280;16428;47.836;35.106;2023-04-02T12:33:37;100554.09;;;13.29;49.24
29461;BME280;16428;47.836;35.106;2023-04-02T12:36:17;100550.22;;;13.10;46.82
29461;BME280;16428;47.836;35.106;2023-04-02T12:38:54;100548.75;;;13.14;46.34
29461;BME280;16428;47.836;35.106;2023-04-02T12:41:26;100550.66;;;13.42;48.87
29461;BME280;16428;47.836;35.106;2023-04-02T12:43:59;100554.31;;;13.34;47.94
29461;BME280;16428;47.836;35.106;2023-04-02T12:46:28;100560.03;;;13.18;50.22
29461;BME280;16428;47.836;35.106;2023-04-02T12:49:05;100566.59;;;13.36;50.30
29461;BME280;16428;47.836;35.106;2023-04-02T12:51:35;100558.56;;;13.15;52.40
29461;BME280;16428;47.836;35.106;2023-04-02T12:54:04;100562.94;;;13.16;52.99
29461;BME280;16428;47.836;35.106;2023-04-02T12:56:34;100569.88;;;13.04;54.52
29461;BME280;16428;47.836;35.106;2023-04-02T12:59:02;100579.81;;;12.76;54.74
29461;BME280;16428;47.836;35.106;2023-04-02T13:01:30;100569.41;;;12.73;54.39
29461;BME280;16428;47.836;35.106;2023-04-02T13:04:10;100581.25;;;12.50;54.11
29461;BME280;16428;47.836;35.106;2023-04-02T13:06:45;100573.81;;;12.52;56.02
29461;BME280;16428;47.836;35.106;2023-04-02T13:09:32;100584.84;;;12.36;56.67
29461;BME280;16428;47.836;35.106;2023-04-02T13:12:02;100579.88;;;12.40;59.56
29461;BME280;16428;47.836;35.106;2023-04-02T13:14:30;100591.28;;;12.20;61.79
29461;BME280;16428;47.836;35.106;2023-04-02T13:16:57;100590.25;;;11.71;65.83
29461;BME280;16428;47.836;35.106;2023-04-02T13:19:30;100590.34;;;11.48;66.83
29461;BME280;16428;47.836;35.106;2023-04-02T13:22:01;100592.84;;;11.49;70.83
29461;BME280;16428;47.836;35.106;2023-04-02T13:24:31;100592.66;;;11.36;72.19
29461;BME280;16428;47.836;35.106;2023-04-02T13:27:00;100584.03;;;11.11;72.11
29461;BME280;16428;47.836;35.106;2023-04-02T13:29:33;100586.53;;;11.13;75.10
29461;BME280;16428;47.836;35.106;2023-04-02T13:32:05;100595.88;;;11.02;73.57
29461;BME280;16428;47.836;35.106;2023-04-02T13:34:34;100590.28;;;10.89;76.13
29461;BME280;16428;47.836;35.106;2023-04-02T13:37:02;100595.22;;;11.00;77.15
29461;BME280;16428;47.836;35.106;2023-04-02T13:39:31;100585.13;;;11.02;76.97
29461;BME280;16428;47.836;35.106;2023-04-02T13:42:03;100585.91;;;10.50;82.51
29461;BME280;16428;47.836;35.106;2023-04-02T13:44:35;100580.47;;;10.58;82.22
29461;BME280;16428;47.836;35.106;2023-04-02T13:47:05;100587.06;;;10.71;82.72
29461;BME280;16428;47.836;35.106;2023-04-02T13:49:35;100583.00;;;10.37;86.75
29461;BME280;16428;47.836;35.106;2023-04-02T13:52:12;100585.69;;;10.37;89.38
29461;BME280;16428;47.836;35.106;2023-04-02T13:54:54;100581.78;;;10.40;91.59
29461;BME280;16428;47.836;35.106;2023-04-02T13:57:26;100584.13;;;10.66;91.32
29461;BME280;16428;47.836;35.106;2023-04-02T13:59:53;100577.28;;;10.78;90.25
29461;BME280;16428;47.836;35.106;2023-04-02T14:02:24;100580.41;;;10.67;92.57
29461;BME280;16428;47.836;35.106;2023-04-02T14:05:11;100581.47;;;10.57;96.68
29461;BME280;16428;47.836;35.106;2023-04-02T14:10:49;100574.59;;;10.78;96.17
29461;BME280;16428;47.836;35.106;2023-04-02T14:16:24;100579.81;;;10.56;98.86
29461;BME280;16428;47.836;35.106;2023-04-02T14:19:29;100577.75;;;10.21;99.83
29461;BME280;16428;47.836;35.106;2023-04-02T14:22:17;100569.19;;;10.40;100.00
29461;BME280;16428;47.836;35.106;2023-04-02T14:25:05;100575.53;;;10.47;100.00
29461;BME280;16428;47.836;35.106;2023-04-02T14:27:47;100576.22;;;10.41;100.00
29461;BME280;16428;47.836;35.106;2023-04-02T14:41:58;100550.56;;;10.16;100.00
29461;BME280;16428;47.836;35.106;2023-04-02T14:44:32;100540.50;;;9.87;100.00
29461;BME280;16428;47.836;35.106;2023-04-02T14:47:21;100549.56;;;10.09;100.00
29461;BME280;16428;47.836;35.106;2023-04-02T14:49:55;100546.19;;;10.23;100.00
29461;BME280;16428;47.836;35.106;2023-04-02T14:52:27;100547.13;;;10.30;100.00
29461;BME280;16428;47.836;35.106;2023-04-02T14:55:17;100547.22;;;10.14;100.00
29461;BME280;16428;47.836;35.106;2023-04-02T14:57:50;100545.53;;;10.13;100.00
29461;BME280;16428;47.836;35.106;2023-04-02T15:00:40;100527.41;;;10.15;100.00
29461;BME280;16428;47.836;35.106;2023-04-02T15:03:50;100536.47;;;10.22;100.00
29461;BME280;16428;47.836;35.106;2023-04-02T15:06:25;100525.91;;;10.20;100.00
29461;BME280;16428;47.836;35.106;2023-04-02T15:09:08;100529.16;;;10.08;100.00
29461;BME280;16428;47.836;35.106;2023-04-02T15:11:44;100534.53;;;10.08;100.00
29461;BME280;16428;47.836;35.106;2023-04-02T15:16:47;100520.00;;;10.17;100.00
29461;BME280;16428;47.836;35.106;2023-04-02T15:19:16;100513.25;;;10.29;100.00
29461;BME280;16428;47.836;35.106;2023-04-02T15:30:36;100528.22;;;10.46;99.84
29461;BME280;16428;47.836;35.106;2023-04-02T15:37:06;100521.81;;;10.47;100.00
29461;BME280;16428;47.836;35.106;2023-04-02T15:42:22;100528.59;;;10.58;100.00
29461;BME280;16428;47.836;35.106;2023-04-02T15:50:46;100524.53;;;10.62;100.00
29461;BME280;16428;47.836;35.106;2023-04-02T15:53:30;100531.59;;;10.63;100.00
29461;BME280;16428;47.836;35.106;2023-04-02T15:56:07;100533.50;;;10.54;100.00
29461;BME280;16428;47.836;35.106;2023-04-02T16:01:47;100520.22;;;10.76;100.00
29461;BME280;16428;47.836;35.106;2023-04-02T16:07:06;100518.66;;;10.44;100.00
29461;BME280;16428;47.836;35.106;2023-04-02T16:12:16;100516.94;;;10.51;100.00
29461;BME280;16428;47.836;35.106;2023-04-02T16:14:48;100513.41;;;10.50;100.00
29461;BME280;16428;47.836;35.106;2023-04-02T16:17:23;100511.38;;;10.52;100.00
29461;BME280;16428;47.836;35.106;2023-04-02T16:22:43;100512.41;;;10.51;100.00
29461;BME280;16428;47.836;35.106;2023-04-02T16:25:32;100508.59;;;10.23;100.00
29461;BME280;16428;47.836;35.106;2023-04-02T16:28:23;100505.88;;;10.46;100.00
29461;BME280;16428;47.836;35.106;2023-04-02T16:31:09;100506.28;;;10.57;100.00
29461;BME280;16428;47.836;35.106;2023-04-02T16:34:35;100499.38;;;10.40;100.00
29461;BME280;16428;47.836;35.106;2023-04-02T16:50:46;100504.81;;;10.70;100.00
29461;BME280;16428;47.836;35.106;2023-04-02T16:53:39;100505.56;;;10.64;100.00
29461;BME280;16428;47.836;35.106;2023-04-02T16:59:34;100528.72;;;10.65;100.00